Hovedside
METAR-TAF:

METAR-TAF

Lufthavner :

Roskilde lufthavn

Roskilde, Danmark

breddegrad: 55-35N, lengdegrad: 012-08E, høyde over havet: 44 m

Gjeldene værobservasjon

Denne rapporten ble laget for 12 minutter siden, klokken 17:20 UTC
Vind 4 kt fra Sørøst
Temperatur 18°C
Luftfuktighet 77%
Trykk 1025 hPa
Sikt 10 km eller mer

METAR: EKRK 261720Z AUTO 13004KT 9999NDV FEW100/// SCT120/// 18/14 Q1025

Tid: 19:32 (17:32 UTC)


TAF: fraværende

Værobservasjoner og værvarsel for over 4000 flyplasser (METAR- og TAF-rapporter).

Tilgjengelige stasjoner er representert av de røde og gule prikkene på kartet.

Hold musepekeren over prikken for å se navnet på stasjonen.

Klikk så for å se værobservasjoner og -varsler.

For å forandre kartet kan du klikke på den grønne knappen med svart kryss for å zoome inn, på den grønne knappen med strek for å zoome ut, eller på de grønne pilene for å se tilstøtende kart.


METAR-TAF: